createdAt,value
2019-04-10T00:00:02.472Z,6.75
2019-04-10T00:01:03.477Z,6.81
2019-04-10T00:02:02.258Z,6.79
2019-04-10T00:03:02.237Z,6.75
2019-04-10T00:04:02.923Z,6.82
2019-04-10T00:05:03.283Z,6.72
2019-04-10T00:06:02.587Z,6.72
2019-04-10T00:07:11.205Z,6.64
2019-04-10T00:08:02.206Z,6.66
2019-04-10T00:09:02.926Z,6.56
2019-04-10T00:10:02.190Z,6.67
2019-04-10T00:11:02.646Z,6.70
2019-04-10T00:12:02.177Z,6.56
2019-04-10T00:13:02.450Z,6.57
2019-04-10T00:14:02.883Z,6.54
2019-04-10T00:15:03.024Z,6.60
2019-04-10T00:16:02.151Z,6.52
2019-04-10T00:17:02.717Z,6.57
2019-04-10T00:18:02.139Z,6.57
2019-04-10T00:19:02.348Z,6.46
2019-04-10T00:20:02.398Z,6.49
2019-04-10T00:21:02.119Z,6.44
2019-04-10T00:22:02.853Z,6.41
2019-04-10T00:23:02.517Z,6.35
2019-04-10T00:24:02.100Z,6.36
2019-04-10T00:25:02.344Z,6.42
2019-04-10T00:26:02.086Z,6.38
2019-04-10T00:27:02.149Z,6.24
2019-04-10T00:28:03.162Z,6.28
2019-04-10T00:29:02.068Z,6.27
2019-04-10T00:30:02.919Z,6.27
2019-04-10T00:31:02.051Z,6.28
2019-04-10T00:32:02.324Z,6.35
2019-04-10T00:33:02.682Z,6.28
2019-04-10T00:34:02.137Z,6.16
2019-04-10T00:35:02.547Z,6.30
2019-04-10T00:36:02.017Z,6.17
2019-04-10T00:37:02.020Z,6.19
2019-04-10T00:38:02.011Z,6.14
2019-04-10T00:39:02.268Z,6.20
2019-04-10T00:40:01.993Z,6.09
2019-04-10T00:41:02.041Z,6.16
2019-04-10T00:42:02.811Z,6.14
2019-04-10T00:43:02.289Z,6.17
2019-04-10T00:44:01.963Z,6.17
2019-04-10T00:45:02.059Z,6.12
2019-04-10T00:46:02.031Z,6.16
2019-04-10T00:47:02.415Z,6.04
2019-04-10T00:48:01.935Z,6.14
2019-04-10T00:49:01.927Z,6.11
2019-04-10T00:50:02.386Z,6.16
2019-04-10T00:51:01.918Z,6.11
2019-04-10T00:52:01.919Z,6.01
2019-04-10T00:53:02.906Z,5.99
2019-04-10T00:54:01.894Z,5.98
2019-04-10T00:55:01.892Z,5.97
2019-04-10T00:56:01.938Z,6.02
2019-04-10T00:57:01.874Z,5.87
2019-04-10T00:58:01.865Z,5.90
2019-04-10T00:59:01.858Z,5.89
2019-04-10T01:00:01.851Z,5.80
2019-04-10T01:01:01.845Z,5.84
2019-04-10T01:02:02.537Z,5.86
2019-04-10T01:03:02.002Z,5.79
2019-04-10T01:04:02.707Z,5.65
2019-04-10T01:05:02.775Z,5.65
2019-04-10T01:06:01.812Z,5.73
2019-04-10T01:07:02.239Z,5.68
2019-04-10T01:08:02.360Z,5.65
2019-04-10T01:09:01.788Z,5.56
2019-04-10T01:10:02.043Z,5.61
2019-04-10T01:11:01.775Z,5.62
2019-04-10T01:12:01.768Z,5.66
2019-04-10T01:13:02.683Z,5.56
2019-04-10T01:14:01.759Z,5.61
2019-04-10T01:15:03.189Z,5.62
2019-04-10T01:16:02.751Z,5.57
2019-04-10T01:17:02.133Z,5.53
2019-04-10T01:18:02.459Z,5.61
2019-04-10T01:19:01.866Z,5.57
2019-04-10T01:20:01.718Z,5.57
2019-04-10T01:21:02.013Z,5.48
2019-04-10T01:22:01.699Z,5.48
2019-04-10T01:23:01.689Z,5.53
2019-04-10T01:24:01.683Z,5.46
2019-04-10T01:25:02.151Z,5.48
2019-04-10T01:26:01.670Z,5.47
2019-04-10T01:27:01.661Z,5.44
2019-04-10T01:28:02.590Z,5.35
2019-04-10T01:29:01.649Z,5.35
2019-04-10T01:30:02.340Z,5.43
2019-04-10T01:31:02.482Z,5.47
2019-04-10T01:32:01.701Z,5.29
2019-04-10T01:33:01.619Z,5.36
2019-04-10T01:34:01.612Z,5.33
2019-04-10T01:35:02.476Z,5.32
2019-04-10T01:36:02.655Z,5.29
2019-04-10T01:37:02.654Z,5.39
2019-04-10T01:38:04.241Z,5.32
2019-04-10T01:39:02.136Z,5.29
2019-04-10T01:40:02.497Z,5.28
2019-04-10T01:41:01.606Z,5.29
2019-04-10T01:42:01.554Z,5.28
2019-04-10T01:43:08.169Z,5.35
2019-04-10T01:44:01.554Z,5.26
2019-04-10T01:45:01.536Z,5.28
2019-04-10T01:46:02.104Z,5.28
2019-04-10T01:47:02.487Z,5.20
2019-04-10T01:48:01.643Z,5.17
2019-04-10T01:49:01.671Z,5.15
2019-04-10T01:50:02.272Z,5.11
2019-04-10T01:51:01.491Z,5.12
2019-04-10T01:52:01.483Z,5.11
2019-04-10T01:53:01.636Z,5.04
2019-04-10T01:54:02.602Z,5.14
2019-04-10T01:55:03.158Z,5.07
2019-04-10T01:56:01.453Z,5.14
2019-04-10T01:57:01.447Z,5.07
2019-04-10T01:58:01.438Z,5.04
2019-04-10T01:59:01.502Z,4.99
2019-04-10T02:00:02.634Z,5.04
2019-04-10T02:01:01.836Z,5.02
2019-04-10T02:02:01.408Z,4.90
2019-04-10T02:03:01.507Z,4.86
2019-04-10T02:04:02.540Z,4.93
2019-04-10T02:05:01.391Z,4.89
2019-04-10T02:06:01.378Z,4.80
2019-04-10T02:07:02.160Z,4.80
2019-04-10T02:08:08.653Z,4.87
2019-04-10T02:09:02.445Z,4.75
2019-04-10T02:10:01.584Z,4.84
2019-04-10T02:11:01.341Z,4.84
2019-04-10T02:12:02.106Z,4.82
2019-04-10T02:13:01.331Z,4.80
2019-04-10T02:14:01.319Z,4.86
2019-04-10T02:15:01.312Z,4.86
2019-04-10T02:16:01.310Z,4.77
2019-04-10T02:17:01.296Z,4.84
2019-04-10T02:18:01.351Z,4.70
2019-04-10T02:19:01.694Z,4.80
2019-04-10T02:20:01.276Z,4.75
2019-04-10T02:21:01.284Z,4.71
2019-04-10T02:22:02.356Z,4.74
2019-04-10T02:23:01.700Z,4.67
2019-04-10T02:24:01.246Z,4.67
2019-04-10T02:25:01.238Z,4.60
2019-04-10T02:26:01.247Z,4.68
2019-04-10T02:27:02.300Z,4.63
2019-04-10T02:28:01.214Z,4.68
2019-04-10T02:29:01.702Z,4.60
2019-04-10T02:30:01.229Z,4.58
2019-04-10T02:31:02.713Z,4.60
2019-04-10T02:32:02.089Z,4.58
2019-04-10T02:33:02.236Z,4.59
2019-04-10T02:34:01.584Z,4.59
2019-04-10T02:35:01.317Z,4.58
2019-04-10T02:36:01.384Z,4.55
2019-04-10T02:37:02.398Z,4.50
2019-04-10T02:38:21.745Z,4.48
2019-04-10T02:39:12.126Z,4.44
2019-04-10T02:40:03.612Z,4.41
2019-04-10T02:41:01.634Z,4.42
2019-04-10T02:42:02.650Z,4.37
2019-04-10T02:43:01.116Z,4.38
2019-04-10T02:44:02.643Z,4.37
2019-04-10T02:45:02.242Z,4.35
2019-04-10T02:46:02.168Z,4.37
2019-04-10T02:47:02.094Z,4.32
2019-04-10T02:48:01.630Z,4.40
2019-04-10T02:49:01.052Z,4.38
2019-04-10T02:50:03.231Z,4.38
2019-04-10T02:51:01.923Z,4.35
2019-04-10T02:52:01.031Z,4.30
2019-04-10T02:53:01.352Z,4.32
2019-04-10T02:54:02.369Z,4.31
2019-04-10T02:55:02.013Z,4.31
2019-04-10T02:56:00.998Z,4.22
2019-04-10T02:57:01.088Z,4.22
2019-04-10T02:58:02.386Z,4.37
2019-04-10T02:59:00.974Z,4.35
2019-04-10T03:00:01.717Z,4.38
2019-04-10T03:01:01.286Z,4.23
2019-04-10T03:02:02.286Z,4.20
2019-04-10T03:03:01.352Z,4.30
2019-04-10T03:04:01.459Z,4.31
2019-04-10T03:05:01.346Z,4.34
2019-04-10T03:06:00.921Z,4.30
2019-04-10T03:07:01.920Z,4.40
2019-04-10T03:08:01.032Z,4.34
2019-04-10T03:09:14.707Z,4.40
2019-04-10T03:10:13.045Z,4.24
2019-04-10T03:11:04.135Z,4.34
2019-04-10T03:12:00.872Z,4.20
2019-04-10T03:13:00.908Z,4.20
2019-04-10T03:14:01.709Z,4.17
2019-04-10T03:15:01.122Z,4.12
2019-04-10T03:16:00.839Z,4.16
2019-04-10T03:17:01.873Z,4.14
2019-04-10T03:18:00.841Z,4.17
2019-04-10T03:19:01.191Z,4.16
2019-04-10T03:20:00.806Z,4.04
2019-04-10T03:21:00.799Z,4.01
2019-04-10T03:22:01.722Z,3.98
2019-04-10T03:23:00.941Z,4.08
2019-04-10T03:24:00.776Z,4.08
2019-04-10T03:25:00.768Z,4.01
2019-04-10T03:26:01.447Z,3.98
2019-04-10T03:27:01.653Z,3.95
2019-04-10T03:28:00.873Z,4.06
2019-04-10T03:29:00.739Z,4.05
2019-04-10T03:30:00.728Z,4.02
2019-04-10T03:31:02.822Z,3.94
2019-04-10T03:32:02.103Z,3.88
2019-04-10T03:33:04.029Z,3.98
2019-04-10T03:34:00.990Z,3.96
2019-04-10T03:35:00.686Z,3.96
2019-04-10T03:36:00.678Z,3.94
2019-04-10T03:37:01.651Z,3.95
2019-04-10T03:38:01.507Z,3.94
2019-04-10T03:39:03.601Z,3.95
2019-04-10T03:40:00.647Z,3.95
2019-04-10T03:41:01.916Z,4.05
2019-04-10T03:42:00.926Z,3.92
2019-04-10T03:43:01.389Z,4.13
2019-04-10T03:44:00.633Z,3.92
2019-04-10T03:45:00.607Z,3.96
2019-04-10T03:46:01.286Z,3.94
2019-04-10T03:47:00.779Z,3.94
2019-04-10T03:48:00.582Z,3.91
2019-04-10T03:49:01.230Z,3.83
2019-04-10T03:50:00.565Z,3.83
2019-04-10T03:51:00.599Z,3.80
2019-04-10T03:52:01.030Z,3.87
2019-04-10T03:53:00.540Z,3.81
2019-04-10T03:54:00.557Z,3.86
2019-04-10T03:55:00.692Z,3.87
2019-04-10T03:56:01.182Z,3.80
2019-04-10T03:57:00.508Z,3.84
2019-04-10T03:58:00.811Z,3.81
2019-04-10T03:59:00.505Z,3.78
2019-04-10T04:00:01.452Z,3.78
2019-04-10T04:01:00.762Z,3.83
2019-04-10T04:02:00.466Z,3.81
2019-04-10T04:03:00.458Z,3.74
2019-04-10T04:04:01.393Z,3.63
2019-04-10T04:05:00.443Z,3.69
2019-04-10T04:06:01.530Z,3.70
2019-04-10T04:07:00.426Z,3.78
2019-04-10T04:08:01.216Z,3.68
2019-04-10T04:09:07.392Z,3.70
2019-04-10T04:10:00.411Z,3.59
2019-04-10T04:11:01.429Z,3.55
2019-04-10T04:12:00.383Z,3.51
2019-04-10T04:13:01.480Z,3.60
2019-04-10T04:14:00.369Z,3.47
2019-04-10T04:15:01.880Z,3.42
2019-04-10T04:16:00.354Z,3.55
2019-04-10T04:17:00.347Z,3.48
2019-04-10T04:18:00.395Z,3.44
2019-04-10T04:19:00.329Z,3.42
2019-04-10T04:20:00.318Z,3.41
2019-04-10T04:21:01.433Z,3.31
2019-04-10T04:22:00.601Z,3.37
2019-04-10T04:23:01.256Z,3.36
2019-04-10T04:24:01.238Z,3.32
2019-04-10T04:25:00.339Z,3.19
2019-04-10T04:26:00.996Z,3.22
2019-04-10T04:27:00.585Z,3.21
2019-04-10T04:28:00.469Z,3.19
2019-04-10T04:29:00.244Z,3.26
2019-04-10T04:30:00.236Z,3.23
2019-04-10T04:31:00.981Z,3.28
2019-04-10T04:32:01.127Z,3.22
2019-04-10T04:33:00.382Z,3.21
2019-04-10T04:34:00.204Z,3.16
2019-04-10T04:35:00.194Z,3.13
2019-04-10T04:36:00.187Z,3.19
2019-04-10T04:37:00.381Z,3.31
2019-04-10T04:38:00.470Z,3.22
2019-04-10T04:39:12.067Z,3.25
2019-04-10T04:40:00.445Z,3.18
2019-04-10T04:41:00.396Z,3.21
2019-04-10T04:42:00.822Z,3.13
2019-04-10T04:43:00.235Z,3.11
2019-04-10T04:44:00.119Z,3.11
2019-04-10T04:45:00.762Z,3.23
2019-04-10T04:46:01.098Z,3.21
2019-04-10T04:47:01.130Z,3.16
2019-04-10T04:48:00.085Z,3.13
2019-04-10T04:49:00.081Z,3.25
2019-04-10T04:50:00.070Z,3.10
2019-04-10T04:51:01.177Z,3.08
2019-04-10T04:52:00.261Z,3.07
2019-04-10T04:53:00.405Z,3.05
2019-04-10T04:54:00.974Z,3.07
2019-04-10T04:55:00.026Z,3.05
2019-04-10T04:56:00.021Z,3.04
2019-04-10T04:57:00.152Z,3.04
2019-04-10T04:58:00.004Z,3.04
2019-04-10T04:58:59.994Z,3.03
2019-04-10T05:00:01.007Z,3.04
2019-04-10T05:00:59.979Z,2.97
2019-04-10T05:01:59.970Z,3.04
2019-04-10T05:02:59.962Z,3.13
2019-04-10T05:04:00.370Z,3.08
2019-04-10T05:05:00.388Z,3.16
2019-04-10T05:06:00.379Z,3.10
2019-04-10T05:06:59.989Z,3.08
2019-04-10T05:08:02.615Z,3.10
2019-04-10T05:08:59.909Z,2.98
2019-04-10T05:10:01.621Z,3.01
2019-04-10T05:11:00.118Z,3.05
2019-04-10T05:12:00.640Z,3.04
2019-04-10T05:12:59.954Z,3.05
2019-04-10T05:13:59.869Z,3.05
2019-04-10T05:15:00.379Z,3.05
2019-04-10T05:15:59.851Z,3.03
2019-04-10T05:16:59.843Z,3.00
2019-04-10T05:17:59.845Z,3.00
2019-04-10T05:18:59.825Z,3.01
2019-04-10T05:20:00.800Z,2.98
2019-04-10T05:21:00.857Z,3.04
2019-04-10T05:21:59.802Z,3.03
2019-04-10T05:22:59.939Z,3.05
2019-04-10T05:23:59.783Z,3.00
2019-04-10T05:25:00.642Z,3.03
2019-04-10T05:26:00.506Z,3.04
2019-04-10T05:26:59.760Z,2.98
2019-04-10T05:27:59.751Z,3.08
2019-04-10T05:29:00.542Z,3.11
2019-04-10T05:29:59.947Z,3.01
2019-04-10T05:30:59.725Z,3.08
2019-04-10T05:32:00.838Z,3.08
2019-04-10T05:32:59.804Z,3.07
2019-04-10T05:33:59.700Z,3.14
2019-04-10T05:35:00.838Z,3.05
2019-04-10T05:35:59.685Z,3.07
2019-04-10T05:36:59.865Z,3.16
2019-04-10T05:38:00.411Z,3.16
2019-04-10T05:39:00.032Z,3.07
2019-04-10T05:39:59.649Z,3.05
2019-04-10T05:40:59.643Z,3.04
2019-04-10T05:42:02.001Z,3.05
2019-04-10T05:42:59.656Z,3.10
2019-04-10T05:44:00.527Z,3.11
2019-04-10T05:45:00.554Z,3.16
2019-04-10T05:45:59.600Z,3.25
2019-04-10T05:46:59.594Z,3.21
2019-04-10T05:47:59.584Z,3.10
2019-04-10T05:49:00.093Z,3.21
2019-04-10T05:49:59.808Z,3.18
2019-04-10T05:51:04.078Z,3.21
2019-04-10T05:51:59.549Z,3.21
2019-04-10T05:53:00.102Z,3.25
2019-04-10T05:54:00.102Z,3.28
2019-04-10T05:54:59.945Z,3.23
2019-04-10T05:55:59.518Z,3.18
2019-04-10T05:56:59.509Z,3.21
2019-04-10T05:57:59.500Z,3.21
2019-04-10T05:58:59.492Z,3.18
2019-04-10T06:00:00.483Z,3.28
2019-04-10T06:00:59.475Z,3.25
2019-04-10T06:01:59.468Z,3.34
2019-04-10T06:03:00.293Z,3.36
2019-04-10T06:03:59.451Z,3.32
2019-04-10T06:04:59.974Z,3.31
2019-04-10T06:06:01.015Z,3.37
2019-04-10T06:06:59.424Z,3.37
2019-04-10T06:07:59.418Z,3.37
2019-04-10T06:09:00.360Z,3.31
2019-04-10T06:10:04.710Z,3.45
2019-04-10T06:11:00.184Z,3.34
2019-04-10T06:12:00.114Z,3.45
2019-04-10T06:13:00.302Z,3.48
2019-04-10T06:13:59.369Z,3.53
2019-04-10T06:14:59.359Z,3.45
2019-04-10T06:15:59.418Z,3.45
2019-04-10T06:17:02.391Z,3.44
2019-04-10T06:17:59.337Z,3.53
2019-04-10T06:18:59.745Z,3.50
2019-04-10T06:19:59.320Z,3.60
2019-04-10T06:20:59.310Z,3.53
2019-04-10T06:21:59.302Z,3.62
2019-04-10T06:22:59.296Z,3.70
2019-04-10T06:24:00.115Z,3.66
2019-04-10T06:24:59.279Z,3.76
2019-04-10T06:26:00.382Z,3.80
2019-04-10T06:26:59.707Z,3.80
2019-04-10T06:27:59.252Z,3.78
2019-04-10T06:28:59.244Z,3.88
2019-04-10T06:29:59.409Z,3.83
2019-04-10T06:30:59.230Z,3.95
2019-04-10T06:31:59.223Z,4.08
2019-04-10T06:33:00.019Z,4.05
2019-04-10T06:34:00.356Z,4.02
2019-04-10T06:34:59.570Z,4.08
2019-04-10T06:35:59.190Z,4.02
2019-04-10T06:36:59.850Z,4.02
2019-04-10T06:37:59.175Z,4.17
2019-04-10T06:39:00.286Z,4.17
2019-04-10T06:40:12.430Z,4.17
2019-04-10T06:40:59.957Z,4.23
2019-04-10T06:42:00.233Z,4.17
2019-04-10T06:42:59.431Z,4.24
2019-04-10T06:43:59.125Z,4.24
2019-04-10T06:44:59.117Z,4.24
2019-04-10T06:45:59.948Z,4.16
2019-04-10T06:46:59.945Z,4.28
2019-04-10T06:47:59.099Z,4.34
2019-04-10T06:48:59.086Z,4.40
2019-04-10T06:49:59.079Z,4.38
2019-04-10T06:50:59.839Z,4.56
2019-04-10T06:51:59.734Z,4.56
2019-04-10T06:52:59.055Z,4.77
2019-04-10T06:54:05.069Z,4.66
2019-04-10T06:54:59.038Z,4.63
2019-04-10T06:55:59.032Z,4.62
2019-04-10T06:56:59.024Z,4.62
2019-04-10T06:57:59.355Z,4.60
2019-04-10T06:58:59.040Z,4.68
2019-04-10T06:59:59.792Z,4.62
2019-04-10T07:01:01.299Z,4.63
2019-04-10T07:02:12.887Z,4.78
2019-04-10T07:02:58.977Z,4.78
2019-04-10T07:04:02.777Z,4.77
2019-04-10T07:05:04.691Z,4.80
2019-04-10T07:06:07.751Z,4.84
2019-04-10T07:07:04.999Z,4.87
2019-04-10T07:08:09.992Z,4.90
2019-04-10T07:08:59.098Z,4.97
2019-04-10T07:09:59.899Z,4.99
2019-04-10T07:11:04.725Z,5.08
2019-04-10T07:12:01.343Z,5.05
2019-04-10T07:12:59.643Z,5.15
2019-04-10T07:13:59.784Z,5.14
2019-04-10T07:14:59.642Z,5.15
2019-04-10T07:15:59.918Z,5.23
2019-04-10T07:17:04.257Z,5.30
2019-04-10T07:17:58.932Z,5.29
2019-04-10T07:19:01.617Z,5.36
2019-04-10T07:19:59.737Z,5.41
2019-04-10T07:21:01.468Z,5.38
2019-04-10T07:22:01.278Z,5.38
2019-04-10T07:22:59.584Z,5.43
2019-04-10T07:24:03.251Z,5.46
2019-04-10T07:24:58.815Z,5.51
2019-04-10T07:25:58.806Z,5.53
2019-04-10T07:27:03.250Z,5.47
2019-04-10T07:27:58.790Z,5.47
2019-04-10T07:28:58.929Z,5.59
2019-04-10T07:29:59.765Z,5.68
2019-04-10T07:31:04.661Z,5.68
2019-04-10T07:31:58.766Z,5.65
2019-04-10T07:32:59.268Z,5.68
2019-04-10T07:33:59.876Z,5.71
2019-04-10T07:35:00.301Z,5.75
2019-04-10T07:35:59.245Z,5.79
2019-04-10T07:36:58.728Z,5.84
2019-04-10T07:37:59.637Z,5.97
2019-04-10T07:38:59.226Z,6.01
2019-04-10T07:40:01.679Z,6.02
2019-04-10T07:40:58.861Z,6.14
2019-04-10T07:41:58.690Z,6.17
2019-04-10T07:42:58.787Z,6.22
2019-04-10T07:43:58.753Z,6.24
2019-04-10T07:44:58.668Z,6.17
2019-04-10T07:45:58.661Z,6.30
2019-04-10T07:47:00.699Z,6.31
2019-04-10T07:47:58.645Z,6.24
2019-04-10T07:48:58.668Z,6.28
2019-04-10T07:49:59.899Z,6.36
2019-04-10T07:50:58.629Z,6.48
2019-04-10T07:51:58.720Z,6.57
2019-04-10T07:52:59.769Z,6.60
2019-04-10T07:53:59.698Z,6.66
2019-04-10T07:54:58.710Z,6.66
2019-04-10T07:56:06.423Z,6.72
2019-04-10T07:56:58.583Z,6.77
2019-04-10T07:57:59.251Z,6.75
2019-04-10T07:58:58.569Z,6.70
2019-04-10T07:59:58.801Z,6.78
2019-04-10T08:00:58.862Z,6.88
2019-04-10T08:01:58.550Z,7.10
2019-04-10T08:02:59.400Z,7.15
2019-04-10T08:03:58.682Z,7.21
2019-04-10T08:04:58.534Z,7.25
2019-04-10T08:05:58.523Z,7.20
2019-04-10T08:06:58.791Z,7.21
2019-04-10T08:07:59.084Z,7.32
2019-04-10T08:08:59.097Z,7.42
2019-04-10T08:09:59.232Z,7.47
2019-04-10T08:10:59.389Z,7.28
2019-04-10T08:11:58.785Z,7.25
2019-04-10T08:12:58.474Z,7.18
2019-04-10T08:13:58.470Z,7.23
2019-04-10T08:14:58.471Z,7.28
2019-04-10T08:15:58.539Z,7.40
2019-04-10T08:16:59.461Z,7.47
2019-04-10T08:17:58.443Z,7.56
2019-04-10T08:18:59.675Z,7.57
2019-04-10T08:19:59.341Z,7.79
2019-04-10T08:20:59.207Z,7.82
2019-04-10T08:21:58.417Z,7.87
2019-04-10T08:22:59.437Z,7.82
2019-04-10T08:23:58.403Z,7.76
2019-04-10T08:24:58.398Z,7.87
2019-04-10T08:25:58.393Z,8.00
2019-04-10T08:26:58.384Z,8.08
2019-04-10T08:27:58.515Z,8.16
2019-04-10T08:28:59.288Z,8.33
2019-04-10T08:29:59.065Z,8.27
2019-04-10T08:30:58.928Z,8.60
2019-04-10T08:31:59.127Z,8.69
2019-04-10T08:33:01.324Z,8.97
2019-04-10T08:33:59.015Z,9.29
2019-04-10T08:34:58.337Z,9.39
2019-04-10T08:35:58.995Z,10.07
2019-04-10T08:36:58.325Z,11.02
2019-04-10T08:37:59.149Z,11.95
2019-04-10T08:38:59.148Z,12.78
2019-04-10T08:39:59.058Z,13.13
2019-04-10T08:40:58.650Z,13.33
2019-04-10T08:41:58.306Z,13.68
2019-04-10T08:42:58.342Z,13.97
2019-04-10T08:43:58.891Z,14.25
2019-04-10T08:44:58.296Z,14.72
2019-04-10T08:45:58.913Z,15.02
2019-04-10T08:46:58.294Z,15.02
2019-04-10T08:47:59.341Z,14.88
2019-04-10T08:48:58.294Z,14.41
2019-04-10T08:49:58.295Z,14.55
2019-04-10T08:50:58.887Z,14.41
2019-04-10T08:51:58.297Z,14.20
2019-04-10T08:52:58.299Z,14.28
2019-04-10T08:53:58.539Z,14.18
2019-04-10T08:54:59.493Z,14.89
2019-04-10T08:55:58.897Z,15.37
2019-04-10T08:56:58.309Z,15.65
2019-04-10T08:57:58.591Z,15.54
2019-04-10T08:58:59.224Z,15.43
2019-04-10T08:59:58.380Z,15.10
2019-04-10T09:00:58.675Z,14.03
2019-04-10T09:01:58.328Z,14.04
2019-04-10T09:02:58.330Z,14.40
2019-04-10T09:03:59.208Z,14.86
2019-04-10T09:04:59.374Z,15.02
2019-04-10T09:05:58.750Z,15.46
2019-04-10T09:07:00.908Z,16.13
2019-04-10T09:07:58.356Z,16.65
2019-04-10T09:08:59.265Z,16.76
2019-04-10T09:09:58.365Z,16.90
2019-04-10T09:10:58.758Z,16.64
2019-04-10T09:11:58.376Z,17.11
2019-04-10T09:12:58.383Z,16.39
2019-04-10T09:13:58.966Z,15.90
2019-04-10T09:14:59.242Z,15.90
2019-04-10T09:15:58.465Z,16.26
2019-04-10T09:16:58.620Z,16.20
2019-04-10T09:17:58.415Z,15.84
2019-04-10T09:18:58.420Z,14.88
2019-04-10T09:19:58.430Z,14.23
2019-04-10T09:20:59.314Z,14.33
2019-04-10T09:21:59.456Z,14.03
2019-04-10T09:23:17.889Z,14.53
2019-04-10T09:24:00.267Z,14.63
2019-04-10T09:24:58.511Z,15.24
2019-04-10T09:25:59.569Z,15.59
2019-04-10T09:26:58.474Z,15.68
2019-04-10T09:27:58.484Z,15.92
2019-04-10T09:28:59.079Z,16.13
2019-04-10T09:29:58.498Z,15.55
2019-04-10T09:30:59.424Z,15.44
2019-04-10T09:31:58.510Z,15.54
2019-04-10T09:32:58.983Z,15.44
2019-04-10T09:33:59.146Z,15.58
2019-04-10T09:34:58.531Z,15.00
2019-04-10T09:35:58.539Z,13.83
2019-04-10T09:36:59.798Z,13.44
2019-04-10T09:37:58.712Z,13.72
2019-04-10T09:38:59.122Z,14.66
2019-04-10T09:39:58.567Z,14.97
2019-04-10T09:40:58.573Z,15.33
2019-04-10T09:41:58.751Z,15.83
2019-04-10T09:42:59.718Z,16.16
2019-04-10T09:43:58.596Z,15.94
2019-04-10T09:44:58.604Z,15.95
2019-04-10T09:45:58.609Z,15.65
2019-04-10T09:46:58.623Z,15.94
2019-04-10T09:47:58.623Z,16.35
2019-04-10T09:48:58.632Z,16.47
2019-04-10T09:49:59.691Z,16.75
2019-04-10T09:50:58.644Z,16.71
2019-04-10T09:51:58.686Z,17.20
2019-04-10T09:52:58.661Z,17.08
2019-04-10T09:53:59.444Z,15.62
2019-04-10T09:54:59.544Z,14.17
2019-04-10T09:55:58.709Z,14.04
2019-04-10T09:56:59.121Z,14.96
2019-04-10T09:58:00.027Z,14.78
2019-04-10T09:58:58.792Z,15.22
2019-04-10T09:59:58.909Z,15.31
2019-04-10T10:00:58.716Z,15.58
2019-04-10T10:01:58.724Z,16.15
2019-04-10T10:02:59.330Z,16.12
2019-04-10T10:03:59.162Z,15.68
2019-04-10T10:04:58.863Z,16.09
2019-04-10T10:06:00.155Z,16.53
2019-04-10T10:06:59.736Z,16.60
2019-04-10T10:07:58.769Z,16.56
2019-04-10T10:08:58.774Z,16.58
2019-04-10T10:10:00.729Z,16.39
2019-04-10T10:10:59.669Z,16.23
2019-04-10T10:11:58.939Z,16.24
2019-04-10T10:12:59.095Z,14.73
2019-04-10T10:13:58.808Z,13.50
2019-04-10T10:14:58.814Z,13.57
2019-04-10T10:15:58.821Z,14.22
2019-04-10T10:16:58.832Z,14.26
2019-04-10T10:17:59.236Z,14.53
2019-04-10T10:18:59.468Z,15.10
2019-04-10T10:19:59.512Z,14.55
2019-04-10T10:20:59.765Z,14.08
2019-04-10T10:22:01.609Z,13.39
2019-04-10T10:22:58.867Z,13.13
2019-04-10T10:23:58.872Z,14.32
2019-04-10T10:24:59.348Z,15.29
2019-04-10T10:25:59.626Z,15.65
2019-04-10T10:26:59.701Z,15.24
2019-04-10T10:27:58.897Z,15.21
2019-04-10T10:28:58.911Z,15.79
2019-04-10T10:29:59.858Z,16.00
2019-04-10T10:30:59.860Z,16.21
2019-04-10T10:31:58.920Z,16.23
2019-04-10T10:32:59.394Z,15.70
2019-04-10T10:33:58.935Z,16.09
2019-04-10T10:34:58.964Z,16.68
2019-04-10T10:35:59.817Z,16.86
2019-04-10T10:36:59.982Z,17.04
2019-04-10T10:37:59.006Z,16.74
2019-04-10T10:39:07.138Z,15.59
2019-04-10T10:39:59.212Z,15.28
2019-04-10T10:40:59.118Z,14.81
2019-04-10T10:41:58.979Z,14.81
2019-04-10T10:43:00.187Z,15.39
2019-04-10T10:43:58.990Z,15.58
2019-04-10T10:44:58.996Z,14.65
2019-04-10T10:45:59.027Z,14.63
2019-04-10T10:46:59.952Z,14.37
2019-04-10T10:47:59.013Z,14.51
2019-04-10T10:49:00.006Z,14.78
2019-04-10T10:49:59.104Z,14.22
2019-04-10T10:50:59.291Z,13.99
2019-04-10T10:51:59.403Z,14.10
2019-04-10T10:52:59.744Z,14.36
2019-04-10T10:54:01.413Z,14.35
2019-04-10T10:54:59.126Z,14.53
2019-04-10T10:56:00.031Z,15.02
2019-04-10T10:56:59.053Z,15.68
2019-04-10T10:57:59.646Z,15.25
2019-04-10T10:58:59.141Z,15.61
2019-04-10T10:59:59.833Z,15.79
2019-04-10T11:00:59.791Z,15.68
2019-04-10T11:02:00.172Z,15.47
2019-04-10T11:03:00.120Z,15.39
2019-04-10T11:03:59.080Z,15.06
2019-04-10T11:05:02.257Z,14.92
2019-04-10T11:05:59.087Z,15.07
2019-04-10T11:07:00.937Z,14.88
2019-04-10T11:07:59.852Z,13.47
2019-04-10T11:08:59.631Z,12.94
2019-04-10T11:09:59.106Z,12.79
2019-04-10T11:11:00.577Z,12.70
2019-04-10T11:12:00.136Z,13.19
2019-04-10T11:12:59.977Z,12.76
2019-04-10T11:13:59.109Z,12.80
2019-04-10T11:14:59.456Z,12.57
2019-04-10T11:16:03.660Z,12.46
2019-04-10T11:16:59.115Z,12.20
2019-04-10T11:18:00.172Z,12.57
2019-04-10T11:18:59.120Z,12.98
2019-04-10T11:19:59.489Z,13.30
2019-04-10T11:21:04.069Z,13.65
2019-04-10T11:21:59.128Z,13.59
2019-04-10T11:23:00.408Z,14.04
2019-04-10T11:23:59.130Z,13.77
2019-04-10T11:25:00.196Z,13.71
2019-04-10T11:25:59.747Z,13.79
2019-04-10T11:27:00.030Z,13.96
2019-04-10T11:28:00.198Z,13.68
2019-04-10T11:28:59.153Z,13.81
2019-04-10T11:29:59.884Z,13.81
2019-04-10T11:30:59.137Z,13.23
2019-04-10T11:31:59.942Z,12.78
2019-04-10T11:33:00.054Z,12.39
2019-04-10T11:34:00.058Z,12.12
2019-04-10T11:34:59.138Z,12.27
2019-04-10T11:36:00.117Z,12.53
2019-04-10T11:37:16.326Z,12.78
2019-04-10T11:38:00.861Z,12.64
2019-04-10T11:39:10.555Z,12.78
2019-04-10T11:40:01.029Z,12.68
2019-04-10T11:41:00.096Z,12.32
2019-04-10T11:41:59.140Z,12.36
2019-04-10T11:43:00.689Z,12.83
2019-04-10T11:44:00.203Z,13.08
2019-04-10T11:44:59.356Z,13.46
2019-04-10T11:46:59.137Z,13.16
2019-04-10T11:48:01.522Z,13.23
2019-04-10T11:49:00.687Z,12.94
2019-04-10T11:50:00.915Z,12.95
2019-04-10T11:50:59.689Z,12.98
2019-04-10T11:51:59.993Z,12.82
2019-04-10T11:53:01.602Z,12.73
2019-04-10T11:54:01.117Z,12.80
2019-04-10T11:55:08.728Z,13.20
2019-04-10T11:56:02.795Z,13.25
2019-04-10T11:57:02.677Z,13.18
2019-04-10T11:58:00.023Z,12.79
2019-04-10T11:58:59.326Z,12.37
2019-04-10T12:01:00.133Z,12.45
2019-04-10T12:02:03.519Z,12.64
2019-04-10T12:03:00.876Z,12.65
2019-04-10T12:04:00.244Z,12.82
2019-04-10T12:05:07.025Z,13.15
2019-04-10T12:05:59.840Z,13.25
2019-04-10T12:07:01.379Z,13.16
2019-04-10T12:08:28.038Z,13.27
2019-04-10T12:09:19.418Z,13.38
2019-04-10T12:11:59.419Z,13.04
2019-04-10T12:12:59.837Z,12.62
2019-04-10T12:13:59.117Z,12.83
2019-04-10T12:14:59.758Z,12.73
2019-04-10T12:15:59.107Z,12.78
2019-04-10T12:16:59.111Z,12.83
2019-04-10T12:18:00.233Z,13.16
2019-04-10T12:18:59.233Z,13.38
2019-04-10T12:19:59.101Z,13.16
2019-04-10T12:20:59.717Z,12.97
2019-04-10T12:21:59.101Z,12.86
2019-04-10T12:22:59.094Z,13.01
2019-04-10T12:23:59.093Z,12.85
2019-04-10T12:24:59.093Z,13.22
2019-04-10T12:25:59.128Z,13.53
2019-04-10T12:27:00.331Z,13.89
2019-04-10T12:27:59.088Z,13.81
2019-04-10T12:29:00.303Z,13.85
2019-04-10T12:29:59.251Z,13.56
2019-04-10T12:30:59.533Z,13.13
2019-04-10T12:31:59.082Z,13.09
2019-04-10T12:32:59.137Z,12.95
2019-04-10T12:34:00.024Z,13.12
2019-04-10T12:34:59.077Z,13.47
2019-04-10T12:36:00.307Z,13.78
2019-04-10T12:40:55.035Z,12.79
2019-04-10T12:41:55.428Z,12.42
2019-04-10T12:42:54.583Z,12.57
2019-04-10T12:46:21.081Z,12.91
2019-04-10T12:47:21.760Z,12.85
2019-04-10T12:50:37.425Z,13.50
2019-04-10T12:52:35.774Z,13.41
2019-04-10T12:58:52.968Z,12.65
2019-04-10T12:59:51.967Z,12.54
2019-04-10T13:00:52.143Z,12.55
2019-04-10T13:01:51.833Z,12.57
2019-04-10T13:02:52.464Z,12.27
2019-04-10T13:03:51.827Z,12.50
2019-04-10T13:04:52.476Z,12.62
2019-04-10T13:05:51.824Z,12.87
2019-04-10T13:07:51.935Z,12.79
2019-04-10T13:09:00.804Z,12.80
2019-04-10T13:09:51.810Z,12.95
2019-04-10T13:10:51.861Z,12.68
2019-04-10T13:21:56.104Z,13.15
2019-04-10T13:23:55.222Z,12.97
2019-04-10T13:26:43.136Z,13.03
2019-04-10T13:27:43.181Z,13.08
2019-04-10T13:28:43.469Z,12.95
2019-04-10T13:29:43.328Z,13.15
2019-04-10T13:31:43.103Z,12.70
2019-04-10T13:34:43.771Z,12.97
2019-04-10T13:41:18.544Z,13.70
2019-04-10T13:42:21.031Z,13.65
2019-04-10T13:45:52.520Z,13.90
2019-04-10T13:46:53.166Z,13.93
2019-04-10T13:47:52.516Z,13.19
2019-04-10T13:48:53.445Z,12.97
2019-04-10T13:49:52.577Z,13.04
2019-04-10T13:50:52.503Z,12.94
2019-04-10T13:51:52.499Z,13.00
2019-04-10T13:52:53.697Z,13.13